createdAt,value
2018-11-29T00:00:46.213Z,62.76
2018-11-29T00:03:15.145Z,62.68
2018-11-29T00:05:43.960Z,62.89
2018-11-29T00:08:12.936Z,63.16
2018-11-29T00:10:41.685Z,63.01
2018-11-29T00:13:17.147Z,63.17
2018-11-29T00:15:47.932Z,63.80
2018-11-29T00:18:16.892Z,63.66
2018-11-29T00:20:45.716Z,63.72
2018-11-29T00:23:14.598Z,63.29
2018-11-29T00:25:43.318Z,63.51
2018-11-29T00:28:12.273Z,63.64
2018-11-29T00:30:40.972Z,63.85
2018-11-29T00:33:09.810Z,64.01
2018-11-29T00:35:38.715Z,64.62
2018-11-29T00:38:07.567Z,65.12
2018-11-29T00:40:36.376Z,65.40
2018-11-29T00:43:05.316Z,65.47
2018-11-29T00:45:34.104Z,66.15
2018-11-29T00:48:02.844Z,66.51
2018-11-29T00:50:31.833Z,66.68
2018-11-29T00:53:00.620Z,66.27
2018-11-29T00:55:29.412Z,66.38
2018-11-29T00:57:58.240Z,66.35
2018-11-29T01:00:26.985Z,66.78
2018-11-29T01:03:02.429Z,66.62
2018-11-29T01:05:31.185Z,66.15
2018-11-29T01:07:59.908Z,66.44
2018-11-29T01:10:28.767Z,66.77
2018-11-29T01:12:57.606Z,67.12
2018-11-29T01:15:26.382Z,67.38
2018-11-29T01:17:55.172Z,67.71
2018-11-29T01:20:24.168Z,67.95
2018-11-29T01:22:53.151Z,68.21
2018-11-29T01:25:22.996Z,67.31
2018-11-29T01:27:51.887Z,67.56
2018-11-29T01:30:21.928Z,67.37
2018-11-29T01:32:50.870Z,67.56
2018-11-29T01:35:20.360Z,67.25
2018-11-29T01:37:49.683Z,66.97
2018-11-29T01:40:23.942Z,67.43
2018-11-29T01:42:55.725Z,67.46
2018-11-29T01:45:24.699Z,67.09
2018-11-29T01:47:53.488Z,67.10
2018-11-29T01:50:22.313Z,67.02
2018-11-29T01:52:51.293Z,67.37
2018-11-29T01:55:20.081Z,66.84
2018-11-29T01:57:48.866Z,66.78
2018-11-29T02:00:18.380Z,66.50
2018-11-29T02:02:49.046Z,66.61
2018-11-29T02:05:17.760Z,66.64
2018-11-29T02:07:46.652Z,66.33
2018-11-29T02:10:21.483Z,66.51
2018-11-29T02:12:50.378Z,66.49
2018-11-29T02:15:19.144Z,66.68
2018-11-29T02:17:47.921Z,66.62
2018-11-29T02:20:17.763Z,66.20
2018-11-29T02:22:46.993Z,66.13
2018-11-29T02:25:15.734Z,65.88
2018-11-29T02:27:44.571Z,65.87
2018-11-29T02:30:18.809Z,65.86
2018-11-29T02:32:47.934Z,65.80
2018-11-29T02:35:16.698Z,65.70
2018-11-29T02:37:45.451Z,65.35
2018-11-29T02:40:15.372Z,65.03
2018-11-29T02:42:44.483Z,65.45
2018-11-29T02:45:14.577Z,64.90
2018-11-29T02:47:43.511Z,64.65
2018-11-29T02:50:12.617Z,64.66
2018-11-29T02:52:41.370Z,64.09
2018-11-29T02:55:11.214Z,64.70
2018-11-29T02:57:40.052Z,64.87
2018-11-29T03:00:12.677Z,64.89
2018-11-29T03:02:41.529Z,64.72
2018-11-29T03:05:10.415Z,64.93
2018-11-29T03:07:39.621Z,64.70
2018-11-29T03:10:10.586Z,64.61
2018-11-29T03:12:39.347Z,64.35
2018-11-29T03:15:11.650Z,64.45
2018-11-29T03:17:40.496Z,65.02
2018-11-29T03:20:10.664Z,65.54
2018-11-29T03:22:39.619Z,66.28
2018-11-29T03:25:10.807Z,66.99
2018-11-29T03:27:39.571Z,67.20
2018-11-29T03:30:16.453Z,68.06
2018-11-29T03:32:45.241Z,67.50
2018-11-29T03:35:14.743Z,67.71
2018-11-29T03:37:43.553Z,67.55
2018-11-29T03:40:13.445Z,68.24
2018-11-29T03:42:42.200Z,67.72
2018-11-29T03:45:13.815Z,67.77
2018-11-29T03:47:42.555Z,67.72
2018-11-29T03:50:12.635Z,67.94
2018-11-29T03:52:41.379Z,67.78
2018-11-29T03:55:11.121Z,67.54
2018-11-29T03:57:40.368Z,67.47
2018-11-29T04:00:17.006Z,67.19
2018-11-29T04:02:47.513Z,66.64
2018-11-29T04:05:16.410Z,66.60
2018-11-29T04:07:45.247Z,67.22
2018-11-29T04:10:15.934Z,66.77
2018-11-29T04:12:44.803Z,66.65
2018-11-29T04:15:15.132Z,66.32
2018-11-29T04:17:44.269Z,66.70
2018-11-29T04:20:14.062Z,67.82
2018-11-29T04:22:43.896Z,68.92
2018-11-29T04:25:13.810Z,69.30
2018-11-29T04:27:42.602Z,70.14
2018-11-29T04:30:16.298Z,70.85
2018-11-29T04:32:45.400Z,71.79
2018-11-29T04:35:14.594Z,71.98
2018-11-29T04:37:43.528Z,72.82
2018-11-29T04:40:14.458Z,72.74
2018-11-29T04:42:43.365Z,73.66
2018-11-29T04:45:14.308Z,73.22
2018-11-29T04:47:43.138Z,73.39
2018-11-29T04:50:11.906Z,72.95
2018-11-29T04:52:40.711Z,73.99
2018-11-29T04:55:10.853Z,73.97
2018-11-29T04:57:39.706Z,74.54
2018-11-29T05:00:14.480Z,74.71
2018-11-29T05:02:43.439Z,75.42
2018-11-29T05:05:12.866Z,75.54
2018-11-29T05:07:41.759Z,75.38
2018-11-29T05:10:12.060Z,75.73
2018-11-29T05:12:40.880Z,75.72
2018-11-29T05:15:11.722Z,75.72
2018-11-29T05:17:40.538Z,75.27
2018-11-29T05:20:09.761Z,75.62
2018-11-29T05:22:38.660Z,75.08
2018-11-29T05:25:08.902Z,75.41
2018-11-29T05:27:38.180Z,75.09
2018-11-29T05:30:13.621Z,75.40
2018-11-29T05:32:42.379Z,75.25
2018-11-29T05:35:12.100Z,75.76
2018-11-29T05:37:41.294Z,75.63
2018-11-29T05:40:11.663Z,76.02
2018-11-29T05:42:40.545Z,76.96
2018-11-29T05:45:10.911Z,76.89
2018-11-29T05:47:39.721Z,76.32
2018-11-29T05:50:10.702Z,77.11
2018-11-29T05:52:39.922Z,77.23
2018-11-29T05:55:10.565Z,77.03
2018-11-29T05:57:39.376Z,77.53
2018-11-29T06:00:17.031Z,77.38
2018-11-29T06:02:45.932Z,77.28
2018-11-29T06:05:16.252Z,77.62
2018-11-29T06:07:45.412Z,77.82
2018-11-29T06:10:18.067Z,77.70
2018-11-29T06:12:47.202Z,78.18
2018-11-29T06:15:15.984Z,78.01
2018-11-29T06:17:44.739Z,78.34
2018-11-29T06:20:16.840Z,78.46
2018-11-29T06:22:45.582Z,78.32
2018-11-29T06:25:14.512Z,78.28
2018-11-29T06:27:43.444Z,78.02
2018-11-29T06:30:17.507Z,78.26
2018-11-29T06:32:46.717Z,78.67
2018-11-29T06:35:15.476Z,79.04
2018-11-29T06:37:44.225Z,78.18
2018-11-29T06:40:14.029Z,78.87
2018-11-29T06:42:42.752Z,78.97
2018-11-29T06:45:26.450Z,79.66
2018-11-29T06:47:55.252Z,80.01
2018-11-29T06:50:23.957Z,79.75
2018-11-29T06:52:53.067Z,79.38
2018-11-29T06:55:22.812Z,79.45
2018-11-29T06:57:52.006Z,79.44
2018-11-29T07:00:31.783Z,79.14
2018-11-29T07:03:00.522Z,78.66
2018-11-29T07:05:29.309Z,78.67
2018-11-29T07:07:58.096Z,78.63
2018-11-29T07:10:34.403Z,78.67
2018-11-29T07:13:04.185Z,78.40
2018-11-29T07:15:32.891Z,78.85
2018-11-29T07:18:01.644Z,78.66
2018-11-29T07:20:30.485Z,78.54
2018-11-29T07:22:59.269Z,77.66
2018-11-29T07:25:28.089Z,77.29
2018-11-29T07:27:57.023Z,78.03
2018-11-29T07:30:25.813Z,77.84
2018-11-29T07:32:54.591Z,77.91
2018-11-29T07:35:23.813Z,77.61
2018-11-29T07:37:52.537Z,77.79
2018-11-29T07:40:21.369Z,78.60
2018-11-29T07:42:53.601Z,78.14
2018-11-29T07:45:22.488Z,78.85
2018-11-29T07:47:51.193Z,78.03
2018-11-29T07:50:22.930Z,78.47
2018-11-29T07:52:51.649Z,78.02
2018-11-29T07:55:21.494Z,77.83
2018-11-29T07:57:51.579Z,78.00
2018-11-29T08:00:20.358Z,77.85
2018-11-29T08:02:49.079Z,78.11
2018-11-29T08:05:18.219Z,78.68
2018-11-29T08:07:47.992Z,79.02
2018-11-29T08:10:18.705Z,78.49
2018-11-29T08:12:47.616Z,78.68
2018-11-29T08:15:18.793Z,79.11
2018-11-29T08:17:47.945Z,78.42
2018-11-29T08:20:17.961Z,78.79
2018-11-29T08:22:46.830Z,79.01
2018-11-29T08:25:15.749Z,79.18
2018-11-29T08:27:44.609Z,79.62
2018-11-29T08:30:14.880Z,79.55
2018-11-29T08:32:44.160Z,79.51
2018-11-29T08:35:14.008Z,79.26
2018-11-29T08:37:43.829Z,78.61
2018-11-29T08:40:14.339Z,79.05
2018-11-29T08:42:43.716Z,79.25
2018-11-29T08:45:12.709Z,78.62
2018-11-29T08:47:41.833Z,78.28
2018-11-29T08:50:11.821Z,78.02
2018-11-29T08:52:41.122Z,78.29
2018-11-29T08:55:13.970Z,78.06
2018-11-29T08:57:42.971Z,78.03
2018-11-29T09:00:16.557Z,77.45
2018-11-29T09:02:45.284Z,77.79
2018-11-29T09:05:14.327Z,77.95
2018-11-29T09:07:44.048Z,78.07
2018-11-29T09:10:14.233Z,77.26
2018-11-29T09:12:43.159Z,77.47
2018-11-29T09:15:14.490Z,76.97
2018-11-29T09:17:43.530Z,77.43
2018-11-29T09:20:20.891Z,76.69
2018-11-29T09:22:49.627Z,76.64
2018-11-29T09:25:19.589Z,76.92
2018-11-29T09:27:48.496Z,76.93
2018-11-29T09:30:20.225Z,77.49
2018-11-29T09:32:50.101Z,76.86
2018-11-29T09:35:18.896Z,76.44
2018-11-29T09:37:47.590Z,76.26
2018-11-29T09:40:17.381Z,76.30
2018-11-29T09:42:46.209Z,76.54
2018-11-29T09:45:15.969Z,76.44
2018-11-29T09:47:45.683Z,76.23
2018-11-29T09:50:15.262Z,76.29
2018-11-29T09:52:43.986Z,76.24
2018-11-29T09:55:13.841Z,76.13
2018-11-29T09:57:42.990Z,76.23
2018-11-29T10:00:27.567Z,76.46
2018-11-29T10:03:00.494Z,76.22
2018-11-29T10:05:29.612Z,75.65
2018-11-29T10:07:58.332Z,76.10
2018-11-29T10:10:27.040Z,76.26
2018-11-29T10:12:55.797Z,75.41
2018-11-29T10:15:30.784Z,75.64
2018-11-29T10:17:59.621Z,76.09
2018-11-29T10:20:28.366Z,75.81
2018-11-29T10:22:57.219Z,76.28
2018-11-29T10:25:26.048Z,75.88
2018-11-29T10:27:58.235Z,76.09
2018-11-29T10:30:28.779Z,76.25
2018-11-29T10:32:57.589Z,76.16
2018-11-29T10:35:26.351Z,76.35
2018-11-29T10:37:56.089Z,76.26
2018-11-29T10:40:24.801Z,76.43
2018-11-29T10:42:53.595Z,75.98
2018-11-29T10:45:22.770Z,76.16
2018-11-29T10:47:52.985Z,76.12
2018-11-29T10:50:21.702Z,76.19
2018-11-29T10:52:50.488Z,76.16
2018-11-29T10:55:20.088Z,76.32
2018-11-29T10:57:48.885Z,76.37
2018-11-29T11:00:24.915Z,76.86
2018-11-29T11:02:59.807Z,76.96
2018-11-29T11:05:28.822Z,77.24
2018-11-29T11:07:59.779Z,77.49
2018-11-29T11:10:28.549Z,77.62
2018-11-29T11:12:57.524Z,77.54
2018-11-29T11:15:26.403Z,77.80
2018-11-29T11:17:55.230Z,77.87
2018-11-29T11:20:24.329Z,77.85
2018-11-29T11:22:53.424Z,77.96
2018-11-29T11:25:22.169Z,78.33
2018-11-29T11:27:51.204Z,77.89
2018-11-29T11:30:21.112Z,77.55
2018-11-29T11:32:51.050Z,77.86
2018-11-29T11:35:20.135Z,77.37
2018-11-29T11:37:48.911Z,77.70
2018-11-29T11:40:18.035Z,77.56
2018-11-29T11:42:47.510Z,77.38
2018-11-29T11:45:18.380Z,77.34
2018-11-29T11:47:47.221Z,77.21
2018-11-29T11:50:18.710Z,77.23
2018-11-29T11:52:47.476Z,77.75
2018-11-29T11:55:18.867Z,78.48
2018-11-29T11:57:45.974Z,78.70
2018-11-29T12:00:23.604Z,78.99
2018-11-29T12:03:06.203Z,78.89
2018-11-29T12:05:35.278Z,79.05
2018-11-29T12:08:04.144Z,79.54
2018-11-29T12:10:33.108Z,79.46
2018-11-29T12:13:01.838Z,79.31
2018-11-29T12:15:30.748Z,79.85
2018-11-29T12:17:59.750Z,80.36
2018-11-29T12:20:28.501Z,80.13
2018-11-29T12:22:57.676Z,80.29
2018-11-29T12:25:26.768Z,80.39
2018-11-29T12:27:55.558Z,80.25
2018-11-29T12:30:26.437Z,79.91
2018-11-29T12:33:00.408Z,79.88
2018-11-29T12:35:29.344Z,80.56
2018-11-29T12:37:58.152Z,80.65
2018-11-29T12:40:27.280Z,80.63
2018-11-29T12:42:56.134Z,80.67
2018-11-29T12:45:24.985Z,80.57
2018-11-29T12:47:53.913Z,81.12
2018-11-29T12:50:24.001Z,81.28
2018-11-29T12:52:52.921Z,81.15
2018-11-29T12:55:22.953Z,81.48
2018-11-29T12:58:04.428Z,81.41
2018-11-29T13:00:21.430Z,81.73
2018-11-29T13:02:52.693Z,81.70
2018-11-29T13:05:21.613Z,81.46
2018-11-29T13:07:50.466Z,81.28
2018-11-29T13:10:20.369Z,81.55
2018-11-29T13:12:49.397Z,81.40
2018-11-29T13:15:24.618Z,81.48
2018-11-29T13:17:54.038Z,81.51
2018-11-29T13:20:22.830Z,81.73
2018-11-29T13:22:51.892Z,81.27
2018-11-29T13:25:21.545Z,81.36
2018-11-29T13:27:50.398Z,81.87
2018-11-29T13:30:20.611Z,81.73
2018-11-29T13:32:50.644Z,81.39
2018-11-29T13:35:22.140Z,81.45
2018-11-29T13:37:56.106Z,81.58
2018-11-29T13:40:25.184Z,81.21
2018-11-29T13:42:54.021Z,80.73
2018-11-29T13:45:22.798Z,80.34
2018-11-29T13:47:51.837Z,80.67
2018-11-29T13:50:20.803Z,80.40
2018-11-29T13:52:49.665Z,80.41
2018-11-29T13:55:19.381Z,80.63
2018-11-29T13:57:50.380Z,80.45
2018-11-29T14:00:20.173Z,80.24
2018-11-29T14:02:51.061Z,79.97
2018-11-29T14:05:19.961Z,79.93
2018-11-29T14:07:48.891Z,79.79
2018-11-29T14:10:19.511Z,79.60
2018-11-29T14:12:49.796Z,79.82
2018-11-29T14:15:19.748Z,79.28
2018-11-29T14:17:48.523Z,79.28
2018-11-29T14:20:17.456Z,79.13
2018-11-29T14:22:46.222Z,79.18
2018-11-29T14:25:15.850Z,79.28
2018-11-29T14:27:49.042Z,78.92
2018-11-29T14:30:25.551Z,79.09
2018-11-29T14:32:55.303Z,79.08
2018-11-29T14:35:24.842Z,78.87
2018-11-29T14:37:53.716Z,78.93
2018-11-29T14:40:23.667Z,78.36
2018-11-29T14:42:52.491Z,78.05
2018-11-29T14:45:22.452Z,78.01
2018-11-29T14:47:51.345Z,77.90
2018-11-29T14:50:25.576Z,77.60
2018-11-29T14:52:54.490Z,77.17
2018-11-29T14:55:23.283Z,77.32
2018-11-29T14:57:52.129Z,77.34
2018-11-29T15:00:21.034Z,77.02
2018-11-29T15:02:49.924Z,77.06
2018-11-29T15:05:25.259Z,77.23
2018-11-29T15:07:54.128Z,77.14
2018-11-29T15:10:22.873Z,77.29
2018-11-29T15:12:51.704Z,77.10
2018-11-29T15:15:20.492Z,77.18
2018-11-29T15:17:50.231Z,76.50
2018-11-29T15:20:25.084Z,76.26
2018-11-29T15:22:53.870Z,76.08
2018-11-29T15:25:22.673Z,75.68
2018-11-29T15:27:51.507Z,75.80
2018-11-29T15:30:21.543Z,75.21
2018-11-29T15:32:50.300Z,75.27
2018-11-29T15:35:19.094Z,75.29
2018-11-29T15:37:48.045Z,75.36
2018-11-29T15:40:17.688Z,75.18
2018-11-29T15:42:46.723Z,75.11
2018-11-29T15:45:30.321Z,75.04
2018-11-29T15:47:59.079Z,74.48
2018-11-29T15:50:28.201Z,74.39
2018-11-29T15:52:57.246Z,74.41
2018-11-29T15:55:26.039Z,74.05
2018-11-29T15:57:55.189Z,74.26
2018-11-29T16:00:25.919Z,74.03
2018-11-29T16:02:55.679Z,73.56
2018-11-29T16:05:24.460Z,73.81
2018-11-29T16:07:53.292Z,73.41
2018-11-29T16:10:24.016Z,73.67
2018-11-29T16:12:52.790Z,73.37
2018-11-29T16:15:22.049Z,73.51
2018-11-29T16:17:51.850Z,73.55
2018-11-29T16:20:22.803Z,73.06
2018-11-29T16:22:51.565Z,73.23
2018-11-29T16:25:20.445Z,72.64
2018-11-29T16:27:49.235Z,72.89
2018-11-29T16:33:09.817Z,72.54
2018-11-29T16:35:39.427Z,72.76
2018-11-29T16:38:08.490Z,72.25
2018-11-29T16:40:37.825Z,72.26
2018-11-29T16:43:07.497Z,72.09
2018-11-29T16:45:36.830Z,71.71
2018-11-29T16:48:05.828Z,71.15
2018-11-29T16:50:34.783Z,71.38
2018-11-29T16:53:03.484Z,71.23
2018-11-29T16:55:32.245Z,71.01
2018-11-29T16:58:10.736Z,70.99
2018-11-29T17:00:39.552Z,70.79
2018-11-29T17:03:08.308Z,70.73
2018-11-29T17:05:37.096Z,70.63
2018-11-29T17:08:06.354Z,71.13
2018-11-29T17:10:35.259Z,70.68
2018-11-29T17:13:08.244Z,70.85
2018-11-29T17:15:37.120Z,71.13
2018-11-29T17:18:05.961Z,70.83
2018-11-29T17:20:35.164Z,70.46
2018-11-29T17:23:03.887Z,70.62
2018-11-29T17:25:33.361Z,70.28
2018-11-29T17:28:02.323Z,70.68
2018-11-29T17:30:31.222Z,70.91
2018-11-29T17:33:00.316Z,70.47
2018-11-29T17:35:29.268Z,70.85
2018-11-29T17:37:59.352Z,70.94
2018-11-29T17:40:28.432Z,71.35
2018-11-29T17:42:57.879Z,71.00
2018-11-29T17:45:29.228Z,70.93
2018-11-29T17:47:59.428Z,71.11
2018-11-29T17:50:34.459Z,71.14
2018-11-29T17:53:03.554Z,71.56
2018-11-29T17:55:32.777Z,71.42
2018-11-29T17:58:01.718Z,71.62
2018-11-29T18:00:32.420Z,71.34
2018-11-29T18:03:01.162Z,71.71
2018-11-29T18:05:29.914Z,72.10
2018-11-29T18:07:58.912Z,72.54
2018-11-29T18:10:29.769Z,72.54
2018-11-29T18:13:01.192Z,72.82
2018-11-29T18:15:31.649Z,73.27
2018-11-29T18:18:00.380Z,73.25
2018-11-29T18:20:29.504Z,73.86
2018-11-29T18:22:59.081Z,74.18
2018-11-29T18:25:27.895Z,74.56
2018-11-29T18:27:57.435Z,75.37
2018-11-29T18:30:26.170Z,75.55
2018-11-29T18:32:54.897Z,75.51
2018-11-29T18:35:23.810Z,75.55
2018-11-29T18:37:52.555Z,75.29
2018-11-29T18:40:22.364Z,75.16
2018-11-29T18:42:52.712Z,74.46
2018-11-29T18:45:21.605Z,74.05
2018-11-29T18:47:52.208Z,74.26
2018-11-29T18:50:22.351Z,74.17
2018-11-29T18:52:51.445Z,74.33
2018-11-29T18:55:21.073Z,74.28
2018-11-29T18:57:50.461Z,74.16
2018-11-29T19:00:26.520Z,73.11
2018-11-29T19:02:57.065Z,72.79
2018-11-29T19:05:24.535Z,72.81
2018-11-29T19:07:53.666Z,72.88
2018-11-29T19:10:22.778Z,72.74
2018-11-29T19:12:56.018Z,72.41
2018-11-29T19:15:25.081Z,72.58
2018-11-29T19:17:54.105Z,72.01
2018-11-29T19:20:22.881Z,72.36
2018-11-29T19:22:51.631Z,72.64
2018-11-29T19:25:20.851Z,72.58
2018-11-29T19:27:49.746Z,72.39
2018-11-29T19:30:24.233Z,72.37
2018-11-29T19:32:59.989Z,72.75
2018-11-29T19:35:29.165Z,72.35
2018-11-29T19:37:57.966Z,72.33
2018-11-29T19:40:26.793Z,72.48
2018-11-29T19:42:56.082Z,72.60
2018-11-29T19:45:24.984Z,72.47
2018-11-29T19:47:53.705Z,73.03
2018-11-29T19:50:22.679Z,72.58
2018-11-29T19:52:52.959Z,72.81
2018-11-29T19:55:24.150Z,72.94
2018-11-29T19:57:53.093Z,72.68
2018-11-29T20:00:23.890Z,72.52
2018-11-29T20:02:54.186Z,72.86
2018-11-29T20:05:23.030Z,72.71
2018-11-29T20:07:52.024Z,72.44
2018-11-29T20:10:20.857Z,72.05
2018-11-29T20:12:55.881Z,72.24
2018-11-29T20:15:24.784Z,72.29
2018-11-29T20:17:53.704Z,71.81
2018-11-29T20:20:22.590Z,71.18
2018-11-29T20:22:51.478Z,71.21
2018-11-29T20:25:21.562Z,71.10
2018-11-29T20:27:50.289Z,70.80
2018-11-29T20:30:20.296Z,71.03
2018-11-29T20:32:50.345Z,70.08
2018-11-29T20:35:19.796Z,70.37
2018-11-29T20:37:49.638Z,70.53
2018-11-29T20:40:20.037Z,70.25
2018-11-29T20:42:49.824Z,70.54
2018-11-29T20:45:35.272Z,70.34
2018-11-29T20:48:21.378Z,70.21
2018-11-29T20:50:50.802Z,70.08
2018-11-29T20:53:21.659Z,69.50
2018-11-29T20:55:50.398Z,69.78
2018-11-29T20:58:19.189Z,69.23
2018-11-29T21:00:48.003Z,69.72
2018-11-29T21:03:16.788Z,69.23
2018-11-29T21:05:45.861Z,69.50
2018-11-29T21:08:14.628Z,69.76
2018-11-29T21:10:43.458Z,69.96
2018-11-29T21:13:12.773Z,69.71
2018-11-29T21:15:42.688Z,70.03
2018-11-29T21:18:14.049Z,69.90
2018-11-29T21:20:43.680Z,70.02
2018-11-29T21:23:15.711Z,70.18
2018-11-29T21:25:45.112Z,70.34
2018-11-29T21:28:13.857Z,70.33
2018-11-29T21:30:42.778Z,70.31
2018-11-29T21:33:11.913Z,70.35
2018-11-29T21:35:40.656Z,70.07
2018-11-29T21:38:13.210Z,70.21
2018-11-29T21:40:43.734Z,69.94
2018-11-29T21:43:12.523Z,70.12
2018-11-29T21:45:41.488Z,70.00
2018-11-29T21:48:10.305Z,69.95
2018-11-29T21:50:39.993Z,70.04
2018-11-29T21:53:08.904Z,70.21
2018-11-29T21:55:37.688Z,70.18
2018-11-29T21:58:06.608Z,70.00
2018-11-29T22:00:35.707Z,70.12
2018-11-29T22:03:04.804Z,70.02
2018-11-29T22:05:33.930Z,70.06
2018-11-29T22:08:02.934Z,69.85
2018-11-29T22:10:31.648Z,70.05
2018-11-29T22:13:00.831Z,70.27
2018-11-29T22:15:29.501Z,69.59
2018-11-29T22:18:31.955Z,69.90
2018-11-29T22:21:02.946Z,69.93
2018-11-29T22:23:32.996Z,69.94
2018-11-29T22:26:03.115Z,70.29
2018-11-29T22:28:32.106Z,69.84
2018-11-29T22:31:00.864Z,69.99
2018-11-29T22:33:29.622Z,69.99
2018-11-29T22:35:58.365Z,69.80
2018-11-29T22:38:27.131Z,70.28
2018-11-29T22:40:56.115Z,70.25
2018-11-29T22:43:25.142Z,69.86
2018-11-29T22:45:54.131Z,70.19
2018-11-29T22:48:23.125Z,70.47
2018-11-29T22:50:52.144Z,70.24
2018-11-29T22:53:21.115Z,70.04
2018-11-29T22:55:50.132Z,70.05
2018-11-29T22:58:18.997Z,69.85
2018-11-29T23:00:52.575Z,69.67
2018-11-29T23:03:21.587Z,69.38
2018-11-29T23:05:50.380Z,69.16
2018-11-29T23:08:19.492Z,68.79
2018-11-29T23:10:49.004Z,68.99
2018-11-29T23:13:18.800Z,68.75
2018-11-29T23:15:47.685Z,68.55
2018-11-29T23:18:16.586Z,68.04
2018-11-29T23:20:45.276Z,67.94
2018-11-29T23:23:14.341Z,67.78
2018-11-29T23:25:43.143Z,67.36
2018-11-29T23:28:12.027Z,66.96
2018-11-29T23:30:40.848Z,66.73
2018-11-29T23:33:10.331Z,66.46
2018-11-29T23:35:40.243Z,66.62
2018-11-29T23:43:07.565Z,66.14
2018-11-29T23:45:36.521Z,65.60
2018-11-29T23:48:05.349Z,65.12
2018-11-29T23:50:34.208Z,65.30
2018-11-29T23:53:03.146Z,65.14
2018-11-29T23:55:32.242Z,64.79
2018-11-29T23:58:01.237Z,64.47
